LGRPLCLK

Guest
Details From LGRP - DIAGORAS
To LCLK - Larnaca
Flight Number -
Tags generated
Created
Modified
Stats Distance 286 nm / 529 km
Max Altitude 35,000 ft / 10,668 m
Waypoints 5
Social Downloads 1
Likes 0
Share VATSIM

Download

Looking for another format? Having issues loading an existing format? Contact us
Advertisement - Login to hide

Notes

Basic altitude profile: - Ascent Rate: 2500ft/min - Ascent Speed: 250kts - Cruise Altitude: 35000ft - Cruise Speed: 420kts - Descent Rate: 1500ft/min - Descent Speed: 250kts Options: - Use NATs: yes - Use PACOTS: yes - Use low airways: yes - Use high airways: yes

Route

LGRP EVENO UM601 DASNI M601 DAROS LCLK

ID Type Via Altitude Latitude Longitude Leg Dist Tot Dist Heading (true) Name
O LGRP APT - 0 ft / 0 m 36.40542˚ 28.08619˚ - 0 nm - DIAGORAS
EVENO FIX - 35,000 ft / 10,668 m 35.83333˚ 30.00000˚ 98 nm 98 nm 110° / 111° -
DASNI FIX UM601 (AWY-HI) 29,600 ft / 9,022 m 35.61667˚ 30.85000˚ 43 nm 142 nm 107° / 108° -
DAROS FIX M601 (AWY-LO) 8,000 ft / 2,438 m 35.01167˚ 33.14833˚ 118 nm 260 nm 107° / 109° -
O LCLK APT - 0 ft / 0 m 34.87512˚ 33.62483˚ 24 nm 285 nm 109° / 109° Larnaca

Altitude Profile

Advertisement - Login to hide

Weather


0- 5 10 15 20 25 30 35+ Temperature / ° C

Clouds and Precipitation
Forecast for 2017-12-13 12:00 UTC. Updated 5 minutes ago

Ground ~20,000 ft ~40,000 ft Winds

LGRP

Details ICAO LGRP (RHO)
Name DIAGORAS
Region Greece
Timezone Europe/Athens (UTC+2.0)
Stats Elevation 17 ft / 5 m (AMSL)
Location 36.405420° 28.086193°
Runways 1
Magnetic Variation 4.780° E

METAR

LGRP 130850Z 27011KT 9999 FEW015 18/12 Q1020 NOSIG

Decode

TAF

TAF LGRP 130500Z 1306/1406 28010KT 9999 FEW015 SCT050 TEMPO 1306/1318 29010G20KT

Decode

Departure Runways

ID Width Length Bearing (true) Bearing (mag) Surface Threshold Offset Overrun Length
07 148 ft / 45 m 10,830 ft / 3,301 m 69.97° 65.19° Asphalt 0 ft / 0 m 0 ft / 0 m
25 148 ft / 45 m 10,830 ft / 3,301 m 249.99° 245.21° Asphalt 0 ft / 0 m 0 ft / 0 m

LCLK

Details ICAO LCLK (LCA)
Name Larnaca
Region Cyprus
Timezone Asia/Nicosia (UTC+2.0)
Stats Elevation 8 ft / 2 m (AMSL)
Location 34.875115° 33.624832°
Runways 1
Magnetic Variation 4.990° E

METAR

LCLK 130900Z 34014KT CAVOK 21/11 Q1017 NOSIG

Decode

TAF

TAF LCLK 130530Z 1306/1406 32009KT 9999 FEW030= TAF LCPH 130530Z 1306/1406 03006KT 9999 FEW030 BECMG 1306/1309 30015KT BECMG 1316/1320 01007KT

Decode

Destination Runways

ID Width Length Bearing (true) Bearing (mag) Surface Threshold Offset Overrun Length
04 148 ft / 45 m 9,771 ft / 2,978 m 45.15° 40.16° Asphalt 0 ft / 0 m 210 ft / 64 m
22 148 ft / 45 m 9,771 ft / 2,978 m 225.17° 220.18° Asphalt 575 ft / 175 m 0 ft / 0 m

Approach Navaids

Runway Type Ident Frequency Range Bearing (true) Bearing (mag) Slope Elevation
22 Localiser ILC 110.30 MHz 18 nm / 33 km 225.17° 220.18° - 8 ft / 2 m (AMSL)
22 Glidescope ILC 110.30 MHz 10 nm / 19 km 225.16° 220.17° 2.75° 24 ft / 7 m (AMSL)
22 DME ILC 110.30 MHz 18 nm / 33 km - - - 20 ft / 6 m (AMSL)

Popular Alternatives